Time;durP1;ratioP1;P1;durP2;ratioP2;P2;SDS_P1;SDS_P2;PMS_P1;PMS_P2;Temp;Humidity;BMP_temperature;BMP_pressure;BME280_temperature;BME280_humidity;BME280_pressure;Samples;Min_cycle;Max_cycle;Signal;HPM_P1;HPM_P2
2022/09/24 00:01:14;;;;;;;46.17;40.90;;;13.70;99.90;;;;;;5050682;28;20477;-44
2022/09/24 00:03:44;;;;;;;46.25;40.95;;;13.80;99.90;;;;;;5049877;28;20047;-46
2022/09/24 00:06:13;;;;;;;47.92;41.95;;;13.90;99.90;;;;;;5050690;28;20041;-48
2022/09/24 00:08:39;;;;;;;47.10;41.67;;;13.70;99.90;;;;;;5050522;28;20491;-48
2022/09/24 00:11:06;;;;;;;52.22;42.35;;;13.90;99.90;;;;;;5048685;28;20033;-45
2022/09/24 00:13:34;;;;;;;49.78;43.30;;;13.90;99.90;;;;;;5049091;28;20072;-44
2022/09/24 00:16:06;;;;;;;52.30;43.45;;;13.70;99.90;;;;;;5050238;28;20419;-43
2022/09/24 00:18:32;;;;;;;48.83;43.05;;;13.80;99.90;;;;;;5050368;28;20033;-44
2022/09/24 00:20:58;;;;;;;49.75;42.33;;;13.80;99.90;;;;;;5050181;28;20576;-44
2022/09/24 00:23:24;;;;;;;46.80;41.75;;;13.60;99.90;;;;;;5050055;28;20123;-44
2022/09/24 00:28:35;;;;;;;48.15;42.13;;;13.60;99.90;;;;;;5038758;28;20222;-46
2022/09/24 00:31:05;;;;;;;49.78;43.53;;;13.90;99.90;;;;;;5050376;28;20483;-47
2022/09/24 00:33:33;;;;;;;50.97;43.97;;;13.80;99.90;;;;;;5050324;28;20075;-44
2022/09/24 00:36:04;;;;;;;50.47;43.58;;;13.80;99.90;;;;;;5049572;28;20068;-45
2022/09/24 00:38:33;;;;;;;48.85;42.60;;;13.60;99.90;;;;;;5049364;28;20041;-45
2022/09/24 00:41:00;;;;;;;53.00;43.60;;;13.90;99.90;;;;;;5035105;28;20143;-46
2022/09/24 00:43:28;;;;;;;51.60;43.60;;;13.80;99.90;;;;;;5050385;28;20033;-46
2022/09/24 00:46:06;;;;;;;50.78;43.08;;;13.60;99.90;;;;;;5049160;28;20590;-46
2022/09/24 00:48:33;;;;;;;54.17;45.20;;;13.80;99.90;;;;;;5049832;28;20043;-43
2022/09/24 00:51:00;;;;;;;53.60;44.65;;;13.80;99.90;;;;;;5050304;28;20043;-44
2022/09/24 00:53:31;;;;;;;50.83;43.67;;;13.70;99.90;;;;;;5038938;28;20052;-44
2022/09/24 00:55:58;;;;;;;52.28;44.35;;;13.50;99.90;;;;;;5048642;28;20098;-43
2022/09/24 00:58:25;;;;;;;53.20;44.90;;;13.80;99.90;;;;;;5032895;28;20045;-43
2022/09/24 01:00:57;;;;;;;53.03;44.10;;;13.80;99.90;;;;;;5049683;28;20056;-45
2022/09/24 01:03:25;;;;;;;51.08;43.70;;;13.70;99.90;;;;;;5052631;28;20070;-45
2022/09/24 01:05:51;;;;;;;54.85;45.55;;;13.80;99.90;;;;;;5053100;28;20068;-44
2022/09/24 01:08:18;;;;;;;52.83;44.67;;;13.80;99.90;;;;;;5053217;28;20033;-47
2022/09/24 01:11:29;;;;;;;56.00;46.30;;;13.70;99.90;;;;;;5053560;28;20116;-45
2022/09/24 01:14:20;;;;;;;53.75;44.25;;;13.70;99.90;;;;;;5034898;28;20049;-46
2022/09/24 01:17:09;;;;;;;54.05;45.38;;;13.50;99.90;;;;;;5053413;28;20067;-44
2022/09/24 01:20:01;;;;;;;53.63;45.50;;;13.70;99.90;;;;;;5053330;28;20447;-45
2022/09/24 01:22:54;;;;;;;54.35;44.72;;;13.50;99.90;;;;;;5052044;28;20082;-44
2022/09/24 01:25:39;;;;;;;56.30;45.45;;;13.50;99.90;;;;;;5052843;28;20039;-46
2022/09/24 01:28:30;;;;;;;54.47;44.92;;;13.70;99.90;;;;;;5051673;28;20032;-45
2022/09/24 01:31:29;;;;;;;54.10;44.83;;;13.70;99.90;;;;;;5051752;28;20079;-44
2022/09/24 01:33:58;;;;;;;56.42;47.40;;;13.50;99.90;;;;;;5052808;28;20060;-47
2022/09/24 01:36:27;;;;;;;53.63;45.70;;;13.40;99.90;;;;;;5052848;28;20119;-45
2022/09/24 01:38:53;;;;;;;55.58;47.10;;;13.60;99.90;;;;;;5040595;28;20047;-45
2022/09/24 01:41:20;;;;;;;56.78;45.80;;;13.50;99.90;;;;;;5050840;28;20044;-44
2022/09/24 01:43:47;;;;;;;57.80;47.33;;;13.60;99.90;;;;;;5052950;28;20055;-43
2022/09/24 01:46:15;;;;;;;55.53;45.90;;;13.50;99.90;;;;;;5052732;28;20075;-44
2022/09/24 01:48:41;;;;;;;59.85;47.45;;;13.50;99.90;;;;;;5051740;28;20384;-46
2022/09/24 01:51:16;;;;;;;55.75;46.85;;;13.70;99.90;;;;;;5052604;28;20047;-44
2022/09/24 01:53:47;;;;;;;58.53;47.25;;;13.50;99.90;;;;;;5052706;28;20075;-44
2022/09/24 01:56:23;;;;;;;55.97;46.83;;;13.70;99.90;;;;;;5052773;28;20119;-45
2022/09/24 01:59:18;;;;;;;57.33;45.33;;;13.40;99.90;;;;;;5051370;28;20059;-46
2022/09/24 02:02:01;;;;;;;55.95;41.53;;;13.50;99.90;;;;;;5049139;28;20053;-46
2022/09/24 02:04:29;;;;;;;56.58;45.17;;;13.40;99.90;;;;;;5052238;28;20480;-45
2022/09/24 02:07:03;;;;;;;58.30;46.65;;;13.50;99.90;;;;;;5052419;28;20400;-44
2022/09/24 02:09:29;;;;;;;;;;;13.70;99.90;;;;;;5053090;28;20033;-45
2022/09/24 02:12:06;;;;;;;56.88;46.00;;;13.40;99.90;;;;;;5052048;28;19920;-45
2022/09/24 02:14:38;;;;;;;58.95;46.83;;;13.40;99.90;;;;;;5051684;28;20123;-45
2022/09/24 02:17:05;;;;;;;57.67;47.92;;;13.70;99.90;;;;;;5052464;28;20399;-48
2022/09/24 02:19:35;;;;;;;59.83;47.50;;;13.40;99.90;;;;;;5052015;28;20086;-47
2022/09/24 02:22:03;;;;;;;58.83;47.47;;;13.50;99.90;;;;;;5052196;28;20128;-44
2022/09/24 02:24:44;;;;;;;59.00;47.80;;;13.40;99.90;;;;;;5052178;28;20064;-46
2022/09/24 02:27:10;;;;;;;57.35;47.28;;;13.50;99.90;;;;;;5032794;28;20041;-44
2022/09/24 02:29:36;;;;;;;59.10;47.40;;;13.40;99.90;;;;;;5052102;28;20379;-44
2022/09/24 02:32:03;;;;;;;57.47;48.58;;;13.60;99.90;;;;;;5052124;28;20064;-45
2022/09/24 02:34:37;;;;;;;56.75;46.42;;;13.40;99.90;;;;;;5051222;28;20111;-45
2022/09/24 02:37:09;;;;;;;60.50;48.22;;;13.40;99.90;;;;;;5051555;28;20033;-48
2022/09/24 02:39:35;;;;;;;56.63;46.97;;;13.40;99.90;;;;;;5051707;28;20037;-43
2022/09/24 02:42:04;;;;;;;59.72;48.40;;;13.60;99.90;;;;;;5051580;28;20041;-45
2022/09/24 02:44:35;;;;;;;59.22;48.88;;;13.30;99.90;;;;;;5051844;28;20415;-45
2022/09/24 02:47:01;;;;;;;58.28;47.10;;;13.30;99.90;;;;;;5051369;28;20043;-45
2022/09/24 02:49:27;;;;;;;60.50;48.22;;;13.40;99.90;;;;;;5051886;28;20048;-45
2022/09/24 02:51:53;;;;;;;59.10;46.58;;;13.40;99.90;;;;;;5051512;28;20071;-45
2022/09/24 02:54:18;;;;;;;60.25;48.65;;;13.20;99.90;;;;;;5051564;28;20072;-45
2022/09/24 02:56:44;;;;;;;60.08;43.38;;;13.60;99.90;;;;;;5051530;28;20110;-43
2022/09/24 02:59:11;;;;;;;60.92;49.25;;;13.60;99.90;;;;;;5051538;28;20033;-45
2022/09/24 03:01:36;;;;;;;62.97;50.55;;;13.60;99.90;;;;;;5051496;28;20072;-43
2022/09/24 03:04:02;;;;;;;58.40;47.38;;;13.30;99.90;;;;;;5050942;28;20068;-47
2022/09/24 03:06:29;;;;;;;60.10;48.10;;;13.40;99.90;;;;;;5038904;28;20107;-44
2022/09/24 03:08:55;;;;;;;60.50;48.08;;;13.60;99.90;;;;;;5051278;28;20084;-44
2022/09/24 03:11:22;;;;;;;64.35;50.22;;;13.60;99.90;;;;;;5042973;28;20384;-43
2022/09/24 03:13:49;;;;;;;61.80;49.42;;;13.30;99.90;;;;;;5051145;28;20541;-46
2022/09/24 03:16:16;;;;;;;64.32;49.47;;;13.40;99.90;;;;;;5050133;28;20040;-49
2022/09/24 03:18:42;;;;;;;60.33;48.90;;;13.40;99.90;;;;;;5051239;28;20436;-44
2022/09/24 03:21:11;;;;;;;61.67;49.92;;;13.30;99.90;;;;;;5050856;28;20144;-47
2022/09/24 03:23:37;;;;;;;63.47;51.08;;;13.40;99.90;;;;;;5051077;28;20603;-46
2022/09/24 03:26:04;;;;;;;62.55;49.58;;;13.40;99.90;;;;;;5050933;28;20029;-44
2022/09/24 03:28:30;;;;;;;60.33;48.15;;;13.60;99.90;;;;;;5051066;28;20056;-44
2022/09/24 03:31:01;;;;;;;64.22;49.45;;;13.50;99.90;;;;;;5051005;28;20041;-46
2022/09/24 03:33:33;;;;;;;60.90;42.15;;;13.30;99.90;;;;;;5047839;28;20037;-44
2022/09/24 03:36:04;;;;;;;62.78;50.17;;;13.30;99.90;;;;;;5050231;28;20041;-47
2022/09/24 03:38:31;;;;;;;62.53;50.72;;;13.60;99.90;;;;;;5050747;28;20033;-45
2022/09/24 03:40:57;;;;;;;61.00;48.55;;;13.60;99.90;;;;;;5034267;28;20037;-49
2022/09/24 03:43:23;;;;;;;62.22;50.13;;;13.30;99.90;;;;;;5050749;28;20029;-44
2022/09/24 03:45:49;;;;;;;63.20;49.60;;;13.20;99.90;;;;;;5050447;28;20377;-44
2022/09/24 03:48:16;;;;;;;61.80;49.88;;;13.40;99.90;;;;;;5050646;28;20040;-44
2022/09/24 03:50:42;;;;;;;68.50;50.88;;;13.40;99.90;;;;;;5049160;28;20124;-44
2022/09/24 03:53:08;;;;;;;60.58;48.90;;;13.20;99.90;;;;;;5050863;28;20140;-45
2022/09/24 03:55:34;;;;;;;63.83;50.08;;;13.20;99.90;;;;;;5048908;28;20050;-47
2022/09/24 03:58:00;;;;;;;61.92;50.05;;;13.40;99.90;;;;;;5033898;28;20499;-47
2022/09/24 04:00:26;;;;;;;63.88;49.85;;;13.30;99.90;;;;;;5040257;28;20043;-47
2022/09/24 04:02:52;;;;;;;60.60;47.65;;;13.50;99.90;;;;;;5050729;28;20045;-45
2022/09/24 04:05:18;;;;;;;67.55;50.08;;;13.40;99.90;;;;;;5050181;28;20037;-45
2022/09/24 04:07:44;;;;;;;63.65;49.42;;;13.40;99.90;;;;;;5049317;28;20095;-46
2022/09/24 04:10:10;;;;;;;60.97;49.08;;;13.30;99.90;;;;;;5050414;28;20037;-46
2022/09/24 04:12:36;;;;;;;64.93;50.72;;;13.50;99.90;;;;;;5050365;28;20076;-43
2022/09/24 04:15:03;;;;;;;63.10;49.10;;;13.50;99.90;;;;;;5050597;28;20076;-47
2022/09/24 04:17:32;;;;;;;66.90;51.92;;;13.60;99.90;;;;;;5050650;28;20045;-45
2022/09/24 04:19:58;;;;;;;65.85;52.13;;;13.60;99.90;;;;;;5049892;28;20053;-44
2022/09/24 04:22:27;;;;;;;63.38;50.72;;;13.40;99.90;;;;;;5048423;28;20041;-46
2022/09/24 04:24:57;;;;;;;65.35;50.80;;;13.40;99.90;;;;;;5050120;28;20037;-48
2022/09/24 04:27:23;;;;;;;62.42;49.10;;;13.50;99.90;;;;;;5050555;28;20063;-46
2022/09/24 04:29:48;;;;;;;65.35;50.78;;;13.50;99.90;;;;;;5047581;28;20480;-45
2022/09/24 04:32:14;;;;;;;60.72;49.65;;;13.40;99.90;;;;;;5050182;28;20415;-46
2022/09/24 04:34:40;;;;;;;64.50;50.55;;;13.30;99.90;;;;;;5050010;28;20052;-45
2022/09/24 04:37:05;;;;;;;64.18;50.40;;;13.30;99.90;;;;;;5051386;28;20262;-43
2022/09/24 04:39:31;;;;;;;63.63;50.50;;;13.60;99.90;;;;;;5054321;28;20411;-44
2022/09/24 04:41:57;;;;;;;60.83;49.35;;;13.30;99.90;;;;;;5051284;28;20488;-46
2022/09/24 04:44:23;;;;;;;60.88;49.67;;;13.50;99.90;;;;;;5053756;28;20077;-45
2022/09/24 04:46:49;;;;;;;61.47;49.55;;;13.50;99.90;;;;;;5053840;28;20041;-45
2022/09/24 04:49:15;;;;;;;66.35;50.13;;;13.30;99.90;;;;;;5053908;28;20379;-44
2022/09/24 04:51:41;;;;;;;60.15;48.42;;;13.30;99.90;;;;;;5052661;28;20049;-47
2022/09/24 04:54:08;;;;;;;59.35;47.63;;;13.40;99.90;;;;;;5044286;28;20048;-46
2022/09/24 04:56:34;;;;;;;58.15;47.42;;;13.30;99.90;;;;;;5054032;28;20048;-45
2022/09/24 04:58:59;;;;;;;58.80;47.60;;;13.50;99.90;;;;;;5043082;28;20041;-50
2022/09/24 05:01:25;;;;;;;60.00;43.72;;;13.60;99.90;;;;;;5053987;28;20373;-44
2022/09/24 05:03:52;;;;;;;59.08;47.03;;;13.40;99.90;;;;;;5053196;28;20380;-46
2022/09/24 05:06:17;;;;;;;58.65;46.47;;;13.30;99.90;;;;;;5053281;28;20037;-46
2022/09/24 05:08:43;;;;;;;56.50;46.00;;;13.60;99.90;;;;;;5051849;28;20040;-47
2022/09/24 05:11:09;;;;;;;55.63;44.78;;;13.60;99.90;;;;;;5053321;28;20122;-46
2022/09/24 05:13:34;;;;;;;57.40;44.30;;;13.40;99.90;;;;;;5053698;28;20044;-47
2022/09/24 05:16:01;;;;;;;53.20;42.67;;;13.40;99.90;;;;;;5053261;28;20032;-46
2022/09/24 05:18:27;;;;;;;51.78;41.75;;;13.60;99.90;;;;;;5053469;28;20029;-46
2022/09/24 05:20:53;;;;;;;54.72;44.03;;;13.30;99.90;;;;;;5052855;28;20439;-45
2022/09/24 05:23:19;;;;;;;52.45;41.80;;;13.40;99.90;;;;;;5053071;28;20037;-46
2022/09/24 05:28:30;;;;;;;51.22;41.58;;;13.30;99.90;;;;;;5052795;28;20071;-46
2022/09/24 05:30:57;;;;;;;51.83;41.47;;;13.30;99.90;;;;;;5050890;28;20069;-48
2022/09/24 05:33:23;;;;;;;50.30;40.10;;;13.60;99.90;;;;;;5034889;28;20041;-44
2022/09/24 05:35:56;;;;;;;49.22;38.65;;;13.60;99.90;;;;;;5052857;28;20037;-47
2022/09/24 05:38:22;;;;;;;49.97;39.15;;;13.40;99.90;;;;;;5036513;28;20044;-45
2022/09/24 05:40:48;;;;;;;48.22;39.65;;;13.50;99.90;;;;;;5052777;28;20033;-48
2022/09/24 05:43:15;;;;;;;46.90;37.05;;;13.60;99.90;;;;;;5053104;28;20053;-44
2022/09/24 05:45:40;;;;;;;45.88;37.38;;;13.30;99.90;;;;;;5052508;28;20055;-47
2022/09/24 05:48:06;;;;;;;43.65;36.13;;;13.50;99.90;;;;;;5052092;28;20045;-47
2022/09/24 05:50:33;;;;;;;46.85;36.55;;;13.60;99.90;;;;;;5050958;28;20091;-46
2022/09/24 05:53:03;;;;;;;46.15;36.03;;;13.50;99.90;;;;;;5052922;28;20033;-43
2022/09/24 05:55:29;;;;;;;45.97;37.05;;;13.60;99.90;;;;;;5052196;28;20052;-46
2022/09/24 05:57:55;;;;;;;45.88;36.97;;;13.40;99.90;;;;;;5052771;28;20044;-46
2022/09/24 06:00:20;;;;;;;44.90;35.38;;;13.50;99.90;;;;;;5052756;28;20041;-46
2022/09/24 06:02:46;;;;;;;43.30;34.92;;;13.30;99.90;;;;;;5052367;28;20215;-46
2022/09/24 06:05:12;;;;;;;45.60;35.60;;;13.60;99.90;;;;;;5052289;28;20092;-43
2022/09/24 06:07:38;;;;;;;45.20;35.88;;;13.60;99.90;;;;;;5052784;28;20044;-48
2022/09/24 06:10:06;;;;;;;40.85;33.50;;;13.30;99.90;;;;;;5052300;28;20033;-47
2022/09/24 06:12:33;;;;;;;47.42;34.63;;;13.40;99.90;;;;;;5050330;28;20124;-46
2022/09/24 06:15:00;;;;;;;43.03;33.03;;;13.60;99.90;;;;;;5039620;28;20061;-47
2022/09/24 06:17:26;;;;;;;38.38;31.70;;;13.60;99.90;;;;;;5052343;28;20519;-45
2022/09/24 06:19:52;;;;;;;40.10;32.03;;;13.50;99.90;;;;;;5050766;28;20041;-47
2022/09/24 06:22:18;;;;;;;35.65;30.02;;;13.30;99.90;;;;;;5052363;28;20117;-46
2022/09/24 06:24:44;;;;;;;38.88;31.40;;;13.40;99.90;;;;;;5052272;28;20187;-47
2022/09/24 06:27:10;;;;;;;38.60;30.48;;;13.40;99.90;;;;;;5052219;28;20144;-46
2022/09/24 06:29:36;;;;;;;40.03;31.35;;;13.50;99.90;;;;;;5051948;28;20140;-46
2022/09/24 06:32:01;;;;;;;37.33;30.48;;;13.40;99.90;;;;;;5051999;28;20416;-47
2022/09/24 06:34:27;;;;;;;38.00;30.40;;;13.60;99.90;;;;;;5049920;28;20618;-46
2022/09/24 06:36:54;;;;;;;39.85;31.15;;;13.30;99.90;;;;;;5052115;28;20036;-44
2022/09/24 06:39:22;;;;;;;39.22;30.85;;;13.40;99.90;;;;;;5051751;28;20052;-45
2022/09/24 06:41:49;;;;;;;38.72;31.27;;;13.60;99.90;;;;;;5051713;28;20037;-47
2022/09/24 06:44:16;;;;;;;37.85;29.85;;;13.60;99.90;;;;;;5051840;28;20502;-45
2022/09/24 06:46:41;;;;;;;39.45;31.05;;;13.40;99.90;;;;;;5051824;28;20477;-47
2022/09/24 06:49:07;;;;;;;36.90;29.38;;;13.40;99.90;;;;;;5051798;28;20083;-49
2022/09/24 06:51:33;;;;;;;42.90;31.42;;;13.40;99.90;;;;;;5049033;28;20469;-44
2022/09/24 06:53:58;;;;;;;37.38;29.42;;;13.50;99.90;;;;;;5044649;28;20033;-49
2022/09/24 06:56:24;;;;;;;40.15;29.90;;;13.60;99.90;;;;;;5049445;28;20116;-47
2022/09/24 06:58:50;;;;;;;39.90;30.20;;;13.40;99.90;;;;;;5051204;28;20041;-47
2022/09/24 07:01:16;;;;;;;35.40;28.80;;;13.60;99.90;;;;;;5044398;28;20044;-43
2022/09/24 07:03:41;;;;;;;37.42;28.40;;;13.70;99.90;;;;;;5046270;28;20124;-44
2022/09/24 07:06:07;;;;;;;35.95;28.58;;;13.40;99.90;;;;;;5041182;28;20056;-47
2022/09/24 07:08:33;;;;;;;36.50;28.60;;;13.50;99.90;;;;;;5044489;28;20534;-45
2022/09/24 07:10:59;;;;;;;35.63;28.38;;;13.40;99.90;;;;;;5043117;28;20106;-47
2022/09/24 07:13:25;;;;;;;34.83;25.30;;;13.40;99.90;;;;;;5043297;28;20040;-45
2022/09/24 07:15:51;;;;;;;39.33;30.10;;;13.30;99.90;;;;;;5044464;28;20051;-46
2022/09/24 07:18:18;;;;;;;39.80;30.17;;;13.40;99.90;;;;;;5045236;28;20025;-47
2022/09/24 07:20:49;;;;;;;38.05;30.10;;;13.40;99.90;;;;;;5043474;28;20052;-45
2022/09/24 07:23:17;;;;;;;36.45;27.60;;;13.30;99.90;;;;;;5044639;28;20037;-44
2022/09/24 07:25:42;;;;;;;31.40;25.58;;;13.50;99.90;;;;;;5033191;28;20084;-45
2022/09/24 07:28:12;;;;;;;32.97;25.92;;;13.50;99.90;;;;;;5044198;28;20060;-44
2022/09/24 07:30:38;;;;;;;28.40;21.77;;;13.50;99.90;;;;;;5044732;28;20048;-47
2022/09/24 07:33:06;;;;;;;23.98;19.90;;;13.30;99.90;;;;;;5044121;28;20043;-45
2022/09/24 07:35:32;;;;;;;25.27;19.88;;;13.30;99.90;;;;;;5047895;28;20049;-46
2022/09/24 07:38:00;;;;;;;30.25;22.17;;;13.40;99.90;;;;;;5045172;28;20045;-46
2022/09/24 07:40:27;;;;;;;22.63;18.52;;;13.30;99.90;;;;;;5046270;28;20769;-46
2022/09/24 07:42:54;;;;;;;23.95;18.58;;;13.60;99.90;;;;;;5033123;28;20087;-47
2022/09/24 07:45:20;;;;;;;23.42;18.50;;;13.40;99.90;;;;;;5045104;28;20111;-44
2022/09/24 07:47:46;;;;;;;17.80;13.52;;;13.40;99.90;;;;;;5045941;28;20068;-43
2022/09/24 07:50:12;;;;;;;17.92;13.23;;;13.50;99.90;;;;;;5043706;28;20069;-44
2022/09/24 07:52:38;;;;;;;18.98;13.00;;;13.60;99.90;;;;;;5045953;28;20465;-48
2022/09/24 07:55:05;;;;;;;14.73;11.20;;;13.80;99.90;;;;;;5046584;28;20044;-44
2022/09/24 07:57:31;;;;;;;16.70;10.40;;;13.80;99.90;;;;;;5043379;28;20132;-45
2022/09/24 07:59:56;;;;;;;17.60;11.85;;;13.60;99.90;;;;;;5041437;28;20151;-47
2022/09/24 08:02:23;;;;;;;15.40;11.88;;;13.90;99.90;;;;;;5045604;28;20133;-49
2022/09/24 08:04:49;;;;;;;19.85;13.35;;;13.70;99.90;;;;;;5043092;28;20123;-44
2022/09/24 08:07:15;;;;;;;19.02;13.80;;;13.80;99.90;;;;;;5044142;28;20162;-43
2022/09/24 08:09:41;;;;;;;18.05;13.52;;;13.70;99.90;;;;;;5044934;28;20500;-47
2022/09/24 08:12:07;;;;;;;20.08;14.48;;;13.90;99.90;;;;;;5047046;28;20029;-44
2022/09/24 08:14:33;;;;;;;18.73;14.13;;;14.10;99.90;;;;;;5049851;28;20028;-46
2022/09/24 08:16:59;;;;;;;20.48;14.32;;;14.10;99.90;;;;;;5046872;28;20052;-47
2022/09/24 08:19:26;;;;;;;22.13;14.18;;;13.80;99.90;;;;;;5045976;28;20037;-44
2022/09/24 08:21:52;;;;;;;17.83;14.32;;;14.10;99.90;;;;;;5048211;28;20064;-46
2022/09/24 08:24:18;;;;;;;18.45;14.18;;;14.00;99.90;;;;;;5047143;28;20041;-48
2022/09/24 08:26:44;;;;;;;18.45;13.88;;;13.90;99.90;;;;;;5047317;28;20033;-45
2022/09/24 08:29:09;;;;;;;19.38;13.63;;;13.90;99.90;;;;;;5048537;28;20381;-46
2022/09/24 08:31:36;;;;;;;20.15;14.48;;;13.90;99.90;;;;;;5048768;28;20040;-43
2022/09/24 08:34:01;;;;;;;19.48;14.90;;;14.40;99.90;;;;;;5046577;28;20033;-48
2022/09/24 08:36:27;;;;;;;19.30;15.20;;;14.00;99.90;;;;;;5048693;28;20044;-45
2022/09/24 08:38:54;;;;;;;21.45;16.17;;;14.30;99.90;;;;;;5036361;28;20136;-46
2022/09/24 08:41:42;;;;;;;21.95;16.17;;;14.20;99.90;;;;;;5048289;28;20040;-44
2022/09/24 08:47:21;;;;;;;23.70;16.05;;;14.10;99.90;;;;;;5048732;28;20052;-46
2022/09/24 08:47:22;;;;;;;20.35;15.38;;;14.40;99.90;;;;;;5048230;28;20045;-45
2022/09/24 08:49:54;;;;;;;22.17;15.50;;;14.40;99.90;;;;;;5049093;28;20029;-42
2022/09/24 08:52:41;;;;;;;21.95;15.55;;;14.30;99.90;;;;;;5046603;28;20510;-44
2022/09/24 08:55:23;;;;;;;18.90;14.60;;;14.30;99.90;;;;;;5046743;28;20076;-48
2022/09/24 08:58:30;;;;;;;21.63;14.55;;;14.50;99.90;;;;;;5045806;28;20028;-47
2022/09/24 09:01:11;;;;;;;19.10;13.25;;;14.40;99.90;;;;;;5047754;28;20143;-46
2022/09/24 09:03:55;;;;;;;18.92;12.80;;;14.40;99.90;;;;;;5045484;28;20029;-46
2022/09/24 09:06:39;;;;;;;21.67;11.65;;;14.60;99.90;;;;;;5045371;28;20060;-45
2022/09/24 09:09:24;;;;;;;16.10;9.70;;;14.50;99.90;;;;;;5044835;28;20033;-48
2022/09/24 09:11:55;;;;;;;18.63;10.25;;;14.40;99.90;;;;;;5047058;28;20037;-43
2022/09/24 09:14:24;;;;;;;18.80;10.55;;;14.50;99.90;;;;;;5034569;28;21036;-47
2022/09/24 09:17:08;;;;;;;17.27;9.93;;;14.50;99.90;;;;;;5047746;28;20040;-45
2022/09/24 09:19:35;;;;;;;16.65;9.82;;;14.80;99.90;;;;;;5046011;28;20111;-49
2022/09/24 09:22:16;;;;;;;16.25;9.15;;;14.70;99.90;;;;;;5046416;28;20057;-46
2022/09/24 09:24:52;;;;;;;12.90;7.78;;;14.50;99.90;;;;;;5045249;28;20045;-49
2022/09/24 09:27:19;;;;;;;17.35;7.97;;;14.80;99.90;;;;;;5032187;28;20060;-49
2022/09/24 09:29:49;;;;;;;13.80;6.88;;;14.80;99.90;;;;;;5047079;28;20057;-47
2022/09/24 09:32:29;;;;;;;14.75;7.50;;;14.80;99.90;;;;;;5048246;28;20385;-49
2022/09/24 09:35:05;;;;;;;14.40;6.00;;;15.00;99.90;;;;;;5047192;28;20091;-46
2022/09/24 09:37:52;;;;;;;13.68;6.30;;;14.80;99.90;;;;;;5048206;28;20040;-46
2022/09/24 09:40:49;;;;;;;12.43;5.97;;;14.70;99.90;;;;;;5045937;28;20041;-45
2022/09/24 09:43:17;;;;;;;15.63;5.40;;;14.80;99.90;;;;;;5045521;28;20081;-46
2022/09/24 09:45:46;;;;;;;13.00;4.05;;;14.90;99.90;;;;;;5043362;28;20048;-46
2022/09/24 09:48:15;;;;;;;15.20;4.07;;;14.80;99.90;;;;;;5044251;28;20033;-47
2022/09/24 09:50:47;;;;;;;11.85;3.53;;;15.00;99.90;;;;;;5044474;28;20060;-45
2022/09/24 09:53:25;;;;;;;14.00;3.55;;;15.00;99.90;;;;;;5046668;28;20158;-46
2022/09/24 09:56:06;;;;;;;15.10;2.97;;;14.70;99.90;;;;;;5047556;28;20112;-47
2022/09/24 09:58:35;;;;;;;12.52;2.60;;;15.00;99.90;;;;;;5046842;28;20037;-46
2022/09/24 10:01:05;;;;;;;10.68;2.38;;;14.90;99.90;;;;;;5046808;28;20033;-47
2022/09/24 10:03:45;;;;;;;14.18;2.60;;;14.80;99.90;;;;;;5044364;28;20037;-44
2022/09/24 10:06:13;;;;;;;12.63;2.80;;;14.90;99.90;;;;;;5036090;28;20475;-47
2022/09/24 10:08:39;;;;;;;9.20;1.85;;;15.00;99.90;;;;;;5044831;28;20492;-44
2022/09/24 10:11:06;;;;;;;7.63;1.80;;;15.00;99.90;;;;;;5044871;28;20087;-45
2022/09/24 10:13:32;;;;;;;10.50;2.28;;;15.10;99.90;;;;;;5046845;28;20063;-46
2022/09/24 10:16:02;;;;;;;9.05;1.90;;;15.00;99.90;;;;;;5048960;28;20036;-45
2022/09/24 10:18:45;;;;;;;6.15;1.50;;;14.90;99.90;;;;;;5044720;28;20079;-46
2022/09/24 10:21:14;;;;;;;8.35;1.50;;;15.00;99.90;;;;;;5045960;28;20136;-48
2022/09/24 10:23:47;;;;;;;7.60;1.77;;;15.10;99.90;;;;;;5046197;28;20099;-47
2022/09/24 10:26:14;;;;;;;;;;;15.00;99.90;;;;;;5045997;28;20068;-43
2022/09/24 10:31:36;;;;;;;5.57;1.48;;;15.00;99.90;;;;;;5048770;28;20102;-46
2022/09/24 10:34:04;;;;;;;5.40;1.27;;;15.10;99.90;;;;;;5031474;28;20129;-45
2022/09/24 10:36:34;;;;;;;7.30;1.88;;;15.20;99.90;;;;;;5043825;28;20048;-47
2022/09/24 10:39:13;;;;;;;4.78;1.23;;;15.20;99.90;;;;;;5047552;28;20111;-45
2022/09/24 10:41:48;;;;;;;5.57;1.50;;;15.20;99.90;;;;;;5050257;28;20439;-45
2022/09/24 10:44:15;;;;;;;7.10;1.42;;;15.30;99.90;;;;;;5049799;28;20067;-44
2022/09/24 10:46:44;;;;;;;8.93;1.52;;;15.30;99.90;;;;;;5050265;28;20029;-44
2022/09/24 10:49:34;;;;;;;7.15;1.52;;;15.40;99.90;;;;;;5040495;28;20072;-49
2022/09/24 10:52:07;;;;;;;5.05;1.58;;;15.30;99.90;;;;;;5038234;28;20507;-44
2022/09/24 10:54:59;;;;;;;5.57;1.35;;;15.20;99.90;;;;;;5051808;28;20116;-45
2022/09/24 10:58:10;;;;;;;5.63;1.35;;;15.30;99.90;;;;;;5034239;28;20048;-50
2022/09/24 11:00:43;;;;;;;6.55;1.27;;;15.30;99.90;;;;;;5035661;28;20416;-44
2022/09/24 11:03:42;;;;;;;5.80;1.65;;;15.40;99.90;;;;;;5041685;28;20049;-46
2022/09/24 11:06:17;;;;;;;10.30;1.67;;;15.50;99.90;;;;;;5046864;28;20127;-45
2022/09/24 11:08:54;;;;;;;6.60;1.65;;;15.50;99.90;;;;;;5045560;28;20412;-45
2022/09/24 11:11:40;;;;;;;6.95;1.50;;;15.40;99.90;;;;;;5042480;28;20134;-46
2022/09/24 11:14:20;;;;;;;6.95;1.48;;;15.50;99.90;;;;;;5045871;28;20053;-44
2022/09/24 11:17:07;;;;;;;8.73;1.40;;;15.40;99.90;;;;;;5045362;28;20102;-48
2022/09/24 11:19:44;;;;;;;7.13;1.50;;;15.50;99.90;;;;;;5045859;28;20465;-44
2022/09/24 11:22:12;;;;;;;9.25;1.52;;;15.40;99.90;;;;;;5039301;28;20041;-47
2022/09/24 11:24:59;;;;;;;6.63;1.27;;;15.50;99.90;;;;;;5037348;28;20124;-49
2022/09/24 11:27:28;;;;;;;5.97;1.45;;;15.40;99.90;;;;;;5038328;28;20037;-47
2022/09/24 11:30:07;;;;;;;6.95;1.40;;;15.60;99.90;;;;;;5046197;28;20036;-47
2022/09/24 11:32:54;;;;;;;6.10;1.42;;;15.50;99.90;;;;;;5049609;28;20495;-44
2022/09/24 11:35:23;;;;;;;6.80;2.00;;;15.40;99.90;;;;;;5049207;28;20127;-48
2022/09/24 11:38:10;;;;;;;5.95;2.08;;;15.50;99.90;;;;;;5048346;28;20402;-46
2022/09/24 11:40:53;;;;;;;5.72;1.65;;;15.50;99.90;;;;;;5048821;28;20052;-45
2022/09/24 11:43:59;;;;;;;7.05;1.35;;;15.40;99.90;;;;;;5030628;28;20052;-46
2022/09/24 11:46:31;;;;;;;4.43;1.08;;;15.40;99.90;;;;;;5049733;28;20041;-45
2022/09/24 11:49:08;;;;;;;6.78;1.20;;;15.30;99.90;;;;;;5049800;28;20095;-46
2022/09/24 11:51:59;;;;;;;7.75;1.25;;;15.40;99.90;;;;;;5048346;28;20037;-47
2022/09/24 11:54:33;;;;;;;12.95;1.55;;;15.40;99.90;;;;;;5049118;28;20112;-45
2022/09/24 11:57:18;;;;;;;8.00;1.55;;;15.30;99.90;;;;;;5049848;28;20036;-49
2022/09/24 12:00:06;;;;;;;8.57;1.65;;;15.40;99.90;;;;;;5031140;28;20103;-45
2022/09/24 12:02:45;;;;;;;7.72;1.73;;;15.20;99.90;;;;;;5048508;28;20043;-49
2022/09/24 12:05:28;;;;;;;5.88;1.40;;;15.30;99.90;;;;;;5048760;28;20131;-44
2022/09/24 12:08:26;;;;;;;6.68;1.20;;;15.40;99.90;;;;;;5030047;28;20057;-44
2022/09/24 12:11:00;;;;;;;6.03;1.50;;;15.30;99.90;;;;;;5037433;28;20041;-45
2022/09/24 12:13:47;;;;;;;7.07;1.30;;;15.30;99.90;;;;;;5049466;28;20036;-45
2022/09/24 12:16:18;;;;;;;5.40;1.10;;;15.40;99.90;;;;;;5048919;28;20075;-46
2022/09/24 12:18:53;;;;;;;7.60;1.25;;;15.40;99.90;;;;;;5046995;28;20033;-44
2022/09/24 12:21:26;;;;;;;8.65;1.60;;;15.40;99.90;;;;;;5049165;28;20045;-47
2022/09/24 12:23:56;;;;;;;7.82;1.35;;;15.40;99.90;;;;;;5048696;28;20041;-43
2022/09/24 12:26:24;;;;;;;9.23;1.48;;;15.40;99.90;;;;;;5049349;28;20044;-44
2022/09/24 12:33:02;;;;;;;10.30;1.88;;;15.40;99.90;;;;;;5050203;28;20044;-49
2022/09/24 12:35:24;;;;;;;7.20;1.55;;;15.50;99.90;;;;;;5044030;28;20116;-48
2022/09/24 12:37:56;;;;;;;7.15;1.55;;;15.40;99.90;;;;;;5050519;28;20067;-46
2022/09/24 12:40:49;;;;;;;9.05;1.60;;;15.60;99.90;;;;;;5050347;28;20033;-48
2022/09/24 12:43:41;;;;;;;6.18;1.27;;;15.60;99.90;;;;;;5049081;28;20392;-44
2022/09/24 12:46:16;;;;;;;6.88;1.60;;;15.70;99.90;;;;;;5050035;28;20072;-45
2022/09/24 12:48:43;;;;;;;8.77;1.65;;;15.60;99.90;;;;;;5050230;28;20045;-47
2022/09/24 12:51:11;;;;;;;6.32;1.23;;;15.50;99.90;;;;;;5049407;28;20045;-46
2022/09/24 12:53:40;;;;;;;6.15;1.40;;;15.50;99.90;;;;;;5050192;28;20037;-45
2022/09/24 12:56:08;;;;;;;5.97;1.15;;;15.50;99.90;;;;;;5050030;28;20072;-46
2022/09/24 12:58:43;;;;;;;6.72;1.25;;;15.40;99.90;;;;;;5052158;28;20071;-44
2022/09/24 13:01:24;;;;;;;6.88;1.80;;;15.40;99.90;;;;;;5054069;28;20037;-46
2022/09/24 13:04:15;;;;;;;6.57;1.27;;;15.30;99.90;;;;;;5053677;28;20037;-45
2022/09/24 13:06:45;;;;;;;7.63;1.45;;;15.40;99.90;;;;;;5053039;28;20135;-46